sensor_id;sensor_type;location;lat;lon;timestamp;temperature;humidity
59855;DHT22;45732;52.850;6.896;2023-05-29T00:00:57;11.60;99.90
59855;DHT22;45732;52.850;6.896;2023-05-29T00:03:22;11.60;99.90
59855;DHT22;45732;52.850;6.896;2023-05-29T00:05:48;11.50;99.90
59855;DHT22;45732;52.850;6.896;2023-05-29T00:08:14;11.50;99.90
59855;DHT22;45732;52.850;6.896;2023-05-29T00:10:41;11.50;99.90
59855;DHT22;45732;52.850;6.896;2023-05-29T00:13:06;11.40;99.90
59855;DHT22;45732;52.850;6.896;2023-05-29T00:15:32;11.40;99.90
59855;DHT22;45732;52.850;6.896;2023-05-29T00:17:58;11.30;99.90
59855;DHT22;45732;52.850;6.896;2023-05-29T00:20:24;11.30;99.90
59855;DHT22;45732;52.850;6.896;2023-05-29T00:22:49;11.20;99.90
59855;DHT22;45732;52.850;6.896;2023-05-29T00:25:15;11.30;99.90
59855;DHT22;45732;52.850;6.896;2023-05-29T00:27:41;11.30;99.90
59855;DHT22;45732;52.850;6.896;2023-05-29T00:30:07;11.30;99.90
59855;DHT22;45732;52.850;6.896;2023-05-29T00:32:33;11.20;99.90
59855;DHT22;45732;52.850;6.896;2023-05-29T00:34:59;11.20;99.90
59855;DHT22;45732;52.850;6.896;2023-05-29T00:37:24;11.10;99.90
59855;DHT22;45732;52.850;6.896;2023-05-29T00:39:51;11.20;99.90
59855;DHT22;45732;52.850;6.896;2023-05-29T00:42:16;11.10;99.90
59855;DHT22;45732;52.850;6.896;2023-05-29T00:44:42;11.10;99.90
59855;DHT22;45732;52.850;6.896;2023-05-29T00:47:08;11.10;99.90
59855;DHT22;45732;52.850;6.896;2023-05-29T00:49:36;11.00;99.90
59855;DHT22;45732;52.850;6.896;2023-05-29T00:52:03;11.00;99.90
59855;DHT22;45732;52.850;6.896;2023-05-29T00:54:30;11.00;99.90
59855;DHT22;45732;52.850;6.896;2023-05-29T00:56:57;11.00;99.90
59855;DHT22;45732;52.850;6.896;2023-05-29T00:59:29;11.00;99.90
59855;DHT22;45732;52.850;6.896;2023-05-29T01:01:55;10.90;99.90
59855;DHT22;45732;52.850;6.896;2023-05-29T01:04:23;10.90;99.90
59855;DHT22;45732;52.850;6.896;2023-05-29T01:06:49;10.90;99.90
59855;DHT22;45732;52.850;6.896;2023-05-29T01:09:15;10.90;99.90
59855;DHT22;45732;52.850;6.896;2023-05-29T01:17:34;10.90;99.90
59855;DHT22;45732;52.850;6.896;2023-05-29T01:23:07;10.80;99.90
59855;DHT22;45732;52.850;6.896;2023-05-29T01:28:47;10.70;99.90
59855;DHT22;45732;52.850;6.896;2023-05-29T01:31:20;10.60;99.90
59855;DHT22;45732;52.850;6.896;2023-05-29T01:33:57;10.50;99.90
59855;DHT22;45732;52.850;6.896;2023-05-29T01:36:24;10.50;99.90
59855;DHT22;45732;52.850;6.896;2023-05-29T01:38:52;10.50;99.90
59855;DHT22;45732;52.850;6.896;2023-05-29T01:41:19;10.50;99.90
59855;DHT22;45732;52.850;6.896;2023-05-29T01:46:14;10.40;99.90
59855;DHT22;45732;52.850;6.896;2023-05-29T01:48:41;10.40;99.90
59855;DHT22;45732;52.850;6.896;2023-05-29T01:51:08;10.40;99.90
59855;DHT22;45732;52.850;6.896;2023-05-29T01:53:33;10.40;99.90
59855;DHT22;45732;52.850;6.896;2023-05-29T01:56:00;10.30;99.90
59855;DHT22;45732;52.850;6.896;2023-05-29T01:58:27;10.40;99.90
59855;DHT22;45732;52.850;6.896;2023-05-29T02:00:55;10.30;99.90
59855;DHT22;45732;52.850;6.896;2023-05-29T02:03:22;10.30;99.90
59855;DHT22;45732;52.850;6.896;2023-05-29T02:05:47;10.30;99.90
59855;DHT22;45732;52.850;6.896;2023-05-29T02:08:13;10.30;99.90
59855;DHT22;45732;52.850;6.896;2023-05-29T02:10:39;10.30;99.90
59855;DHT22;45732;52.850;6.896;2023-05-29T02:13:04;10.30;99.90
59855;DHT22;45732;52.850;6.896;2023-05-29T02:15:30;10.30;99.90
59855;DHT22;45732;52.850;6.896;2023-05-29T02:17:56;10.20;99.90
59855;DHT22;45732;52.850;6.896;2023-05-29T02:20:23;10.20;99.90
59855;DHT22;45732;52.850;6.896;2023-05-29T02:22:49;10.10;99.90
59855;DHT22;45732;52.850;6.896;2023-05-29T02:25:15;10.00;99.90
59855;DHT22;45732;52.850;6.896;2023-05-29T02:27:40;10.00;99.90
59855;DHT22;45732;52.850;6.896;2023-05-29T02:30:06;10.00;99.90
59855;DHT22;45732;52.850;6.896;2023-05-29T02:32:33;9.90;99.90
59855;DHT22;45732;52.850;6.896;2023-05-29T02:34:59;9.90;99.90
59855;DHT22;45732;52.850;6.896;2023-05-29T02:37:25;9.80;99.90
59855;DHT22;45732;52.850;6.896;2023-05-29T02:39:51;9.80;99.90
59855;DHT22;45732;52.850;6.896;2023-05-29T02:42:17;9.80;99.90
59855;DHT22;45732;52.850;6.896;2023-05-29T02:44:43;9.80;99.90
59855;DHT22;45732;52.850;6.896;2023-05-29T02:47:09;9.80;99.90
59855;DHT22;45732;52.850;6.896;2023-05-29T02:49:34;9.80;99.90
59855;DHT22;45732;52.850;6.896;2023-05-29T02:52:00;9.90;99.90
59855;DHT22;45732;52.850;6.896;2023-05-29T02:54:26;9.90;99.90
59855;DHT22;45732;52.850;6.896;2023-05-29T02:56:52;9.90;99.90
59855;DHT22;45732;52.850;6.896;2023-05-29T02:59:18;9.80;99.90
59855;DHT22;45732;52.850;6.896;2023-05-29T03:01:43;9.90;99.90
59855;DHT22;45732;52.850;6.896;2023-05-29T03:04:12;9.90;99.90
59855;DHT22;45732;52.850;6.896;2023-05-29T03:06:38;9.80;99.90
59855;DHT22;45732;52.850;6.896;2023-05-29T03:09:03;9.80;99.90
59855;DHT22;45732;52.850;6.896;2023-05-29T03:11:31;9.80;99.90
59855;DHT22;45732;52.850;6.896;2023-05-29T03:13:57;9.80;99.90
59855;DHT22;45732;52.850;6.896;2023-05-29T03:16:22;9.80;99.90
59855;DHT22;45732;52.850;6.896;2023-05-29T03:18:48;9.80;99.90
59855;DHT22;45732;52.850;6.896;2023-05-29T03:21:15;9.80;99.90
59855;DHT22;45732;52.850;6.896;2023-05-29T03:23:41;9.80;99.90
59855;DHT22;45732;52.850;6.896;2023-05-29T03:26:06;9.70;99.90
59855;DHT22;45732;52.850;6.896;2023-05-29T03:28:32;9.60;99.90
59855;DHT22;45732;52.850;6.896;2023-05-29T03:30:58;9.50;99.90
59855;DHT22;45732;52.850;6.896;2023-05-29T03:33:23;9.50;99.90
59855;DHT22;45732;52.850;6.896;2023-05-29T03:35:49;9.50;99.90
59855;DHT22;45732;52.850;6.896;2023-05-29T03:38:15;9.60;99.90
59855;DHT22;45732;52.850;6.896;2023-05-29T03:40:40;9.60;99.90
59855;DHT22;45732;52.850;6.896;2023-05-29T03:43:06;9.60;99.90
59855;DHT22;45732;52.850;6.896;2023-05-29T03:45:32;9.60;99.90
59855;DHT22;45732;52.850;6.896;2023-05-29T03:47:57;9.60;99.90
59855;DHT22;45732;52.850;6.896;2023-05-29T03:50:23;9.70;99.90
59855;DHT22;45732;52.850;6.896;2023-05-29T03:52:49;9.70;99.90
59855;DHT22;45732;52.850;6.896;2023-05-29T03:55:14;9.70;99.90
59855;DHT22;45732;52.850;6.896;2023-05-29T03:57:40;9.70;99.90
59855;DHT22;45732;52.850;6.896;2023-05-29T04:00:08;9.70;99.90
59855;DHT22;45732;52.850;6.896;2023-05-29T04:02:39;9.70;99.90
59855;DHT22;45732;52.850;6.896;2023-05-29T04:05:08;9.70;99.90
59855;DHT22;45732;52.850;6.896;2023-05-29T04:07:38;9.70;99.90
59855;DHT22;45732;52.850;6.896;2023-05-29T04:10:05;9.70;99.90
59855;DHT22;45732;52.850;6.896;2023-05-29T04:12:32;9.70;99.90
59855;DHT22;45732;52.850;6.896;2023-05-29T04:14:58;9.70;99.90
59855;DHT22;45732;52.850;6.896;2023-05-29T04:17:24;9.70;99.90
59855;DHT22;45732;52.850;6.896;2023-05-29T04:19:50;9.70;99.90
59855;DHT22;45732;52.850;6.896;2023-05-29T04:22:16;9.80;99.90
59855;DHT22;45732;52.850;6.896;2023-05-29T04:24:42;9.70;99.90
59855;DHT22;45732;52.850;6.896;2023-05-29T04:27:08;9.60;99.90
59855;DHT22;45732;52.850;6.896;2023-05-29T04:29:34;9.70;99.90
59855;DHT22;45732;52.850;6.896;2023-05-29T04:32:00;9.60;99.90
59855;DHT22;45732;52.850;6.896;2023-05-29T04:34:29;9.70;99.90
59855;DHT22;45732;52.850;6.896;2023-05-29T04:36:57;9.70;99.90
59855;DHT22;45732;52.850;6.896;2023-05-29T04:39:24;9.70;99.90
59855;DHT22;45732;52.850;6.896;2023-05-29T04:41:50;9.80;99.90
59855;DHT22;45732;52.850;6.896;2023-05-29T04:44:17;9.90;99.90
59855;DHT22;45732;52.850;6.896;2023-05-29T04:46:43;10.00;99.90
59855;DHT22;45732;52.850;6.896;2023-05-29T04:49:10;10.00;99.90
59855;DHT22;45732;52.850;6.896;2023-05-29T04:51:38;10.10;99.90
59855;DHT22;45732;52.850;6.896;2023-05-29T04:54:07;10.20;99.90
59855;DHT22;45732;52.850;6.896;2023-05-29T04:56:35;10.30;99.90
59855;DHT22;45732;52.850;6.896;2023-05-29T04:59:02;10.30;99.90
59855;DHT22;45732;52.850;6.896;2023-05-29T05:01:28;10.40;99.90
59855;DHT22;45732;52.850;6.896;2023-05-29T05:03:54;10.50;99.90
59855;DHT22;45732;52.850;6.896;2023-05-29T05:06:23;10.50;99.90
59855;DHT22;45732;52.850;6.896;2023-05-29T05:08:51;10.60;99.90
59855;DHT22;45732;52.850;6.896;2023-05-29T05:11:19;10.70;99.90
59855;DHT22;45732;52.850;6.896;2023-05-29T05:13:46;10.80;99.90
59855;DHT22;45732;52.850;6.896;2023-05-29T05:16:11;10.90;99.90
59855;DHT22;45732;52.850;6.896;2023-05-29T05:18:38;11.00;99.90
59855;DHT22;45732;52.850;6.896;2023-05-29T05:21:03;11.00;99.90
59855;DHT22;45732;52.850;6.896;2023-05-29T05:23:30;11.10;99.90
59855;DHT22;45732;52.850;6.896;2023-05-29T05:25:55;11.20;99.90
59855;DHT22;45732;52.850;6.896;2023-05-29T05:28:21;11.30;99.90
59855;DHT22;45732;52.850;6.896;2023-05-29T05:30:47;11.40;99.90
59855;DHT22;45732;52.850;6.896;2023-05-29T05:33:13;11.40;99.90
59855;DHT22;45732;52.850;6.896;2023-05-29T05:35:38;11.50;99.90
59855;DHT22;45732;52.850;6.896;2023-05-29T05:38:04;11.50;99.90
59855;DHT22;45732;52.850;6.896;2023-05-29T05:40:30;11.60;99.90
59855;DHT22;45732;52.850;6.896;2023-05-29T05:42:56;11.60;99.90
59855;DHT22;45732;52.850;6.896;2023-05-29T05:45:21;11.70;99.90
59855;DHT22;45732;52.850;6.896;2023-05-29T05:47:47;11.80;99.90
59855;DHT22;45732;52.850;6.896;2023-05-29T05:50:13;11.80;99.90
59855;DHT22;45732;52.850;6.896;2023-05-29T05:52:39;11.80;99.90
59855;DHT22;45732;52.850;6.896;2023-05-29T05:55:05;11.90;99.90
59855;DHT22;45732;52.850;6.896;2023-05-29T05:57:31;11.90;99.90
59855;DHT22;45732;52.850;6.896;2023-05-29T06:00:02;11.90;99.90
59855;DHT22;45732;52.850;6.896;2023-05-29T06:02:33;12.00;99.90
59855;DHT22;45732;52.850;6.896;2023-05-29T06:04:58;12.00;99.90
59855;DHT22;45732;52.850;6.896;2023-05-29T06:07:24;12.00;99.90
59855;DHT22;45732;52.850;6.896;2023-05-29T06:09:50;12.10;99.90
59855;DHT22;45732;52.850;6.896;2023-05-29T06:12:16;12.10;99.90
59855;DHT22;45732;52.850;6.896;2023-05-29T06:14:42;12.10;99.90
59855;DHT22;45732;52.850;6.896;2023-05-29T06:17:07;12.20;99.90
59855;DHT22;45732;52.850;6.896;2023-05-29T06:19:33;12.20;99.90
59855;DHT22;45732;52.850;6.896;2023-05-29T06:21:58;12.40;99.90
59855;DHT22;45732;52.850;6.896;2023-05-29T06:24:24;12.50;99.90
59855;DHT22;45732;52.850;6.896;2023-05-29T06:26:50;12.40;99.90
59855;DHT22;45732;52.850;6.896;2023-05-29T06:29:15;12.50;99.90
59855;DHT22;45732;52.850;6.896;2023-05-29T06:31:41;12.60;99.90
59855;DHT22;45732;52.850;6.896;2023-05-29T06:34:07;12.60;99.90
59855;DHT22;45732;52.850;6.896;2023-05-29T06:36:32;12.60;99.90
59855;DHT22;45732;52.850;6.896;2023-05-29T06:39:00;12.60;99.90
59855;DHT22;45732;52.850;6.896;2023-05-29T06:41:26;12.70;99.90
59855;DHT22;45732;52.850;6.896;2023-05-29T06:43:51;12.60;99.90
59855;DHT22;45732;52.850;6.896;2023-05-29T06:46:17;12.60;99.90
59855;DHT22;45732;52.850;6.896;2023-05-29T06:48:43;12.60;99.90
59855;DHT22;45732;52.850;6.896;2023-05-29T06:51:09;12.70;99.90
59855;DHT22;45732;52.850;6.896;2023-05-29T06:53:40;12.70;99.90
59855;DHT22;45732;52.850;6.896;2023-05-29T06:56:06;12.80;99.90
59855;DHT22;45732;52.850;6.896;2023-05-29T06:58:33;12.90;99.90
59855;DHT22;45732;52.850;6.896;2023-05-29T07:00:59;12.90;99.90
59855;DHT22;45732;52.850;6.896;2023-05-29T07:03:25;13.00;99.90
59855;DHT22;45732;52.850;6.896;2023-05-29T07:05:51;13.00;99.90
59855;DHT22;45732;52.850;6.896;2023-05-29T07:08:18;13.10;99.90
59855;DHT22;45732;52.850;6.896;2023-05-29T07:10:44;13.00;99.90
59855;DHT22;45732;52.850;6.896;2023-05-29T07:13:14;13.10;99.90
59855;DHT22;45732;52.850;6.896;2023-05-29T07:15:40;13.10;99.90
59855;DHT22;45732;52.850;6.896;2023-05-29T07:18:06;13.20;99.90
59855;DHT22;45732;52.850;6.896;2023-05-29T07:20:31;13.20;99.90
59855;DHT22;45732;52.850;6.896;2023-05-29T07:22:57;13.20;99.90
59855;DHT22;45732;52.850;6.896;2023-05-29T07:25:23;13.30;99.90
59855;DHT22;45732;52.850;6.896;2023-05-29T07:27:48;13.30;99.90
59855;DHT22;45732;52.850;6.896;2023-05-29T07:30:14;13.40;99.90
59855;DHT22;45732;52.850;6.896;2023-05-29T07:32:40;13.40;99.90
59855;DHT22;45732;52.850;6.896;2023-05-29T07:35:06;13.40;99.90
59855;DHT22;45732;52.850;6.896;2023-05-29T07:37:32;13.40;99.90
59855;DHT22;45732;52.850;6.896;2023-05-29T07:39:58;13.40;99.90
59855;DHT22;45732;52.850;6.896;2023-05-29T07:42:24;13.50;99.90
59855;DHT22;45732;52.850;6.896;2023-05-29T07:44:49;13.50;99.90
59855;DHT22;45732;52.850;6.896;2023-05-29T07:47:15;13.60;99.90
59855;DHT22;45732;52.850;6.896;2023-05-29T07:49:41;13.60;99.90
59855;DHT22;45732;52.850;6.896;2023-05-29T07:52:06;13.70;99.90
59855;DHT22;45732;52.850;6.896;2023-05-29T07:54:32;13.70;99.90
59855;DHT22;45732;52.850;6.896;2023-05-29T07:57:01;13.80;99.90
59855;DHT22;45732;52.850;6.896;2023-05-29T07:59:35;13.90;99.90
59855;DHT22;45732;52.850;6.896;2023-05-29T08:02:01;14.00;99.90
59855;DHT22;45732;52.850;6.896;2023-05-29T08:04:28;14.10;99.90
59855;DHT22;45732;52.850;6.896;2023-05-29T08:06:54;14.10;99.90
59855;DHT22;45732;52.850;6.896;2023-05-29T08:09:20;14.20;99.90
59855;DHT22;45732;52.850;6.896;2023-05-29T08:11:46;14.20;99.90
59855;DHT22;45732;52.850;6.896;2023-05-29T08:14:13;14.30;99.90
59855;DHT22;45732;52.850;6.896;2023-05-29T08:16:39;14.30;99.90
59855;DHT22;45732;52.850;6.896;2023-05-29T08:19:05;14.30;99.90
59855;DHT22;45732;52.850;6.896;2023-05-29T08:21:31;14.40;99.90
59855;DHT22;45732;52.850;6.896;2023-05-29T08:24:01;14.50;99.90
59855;DHT22;45732;52.850;6.896;2023-05-29T08:26:27;14.60;99.90
59855;DHT22;45732;52.850;6.896;2023-05-29T08:28:53;14.60;99.90
59855;DHT22;45732;52.850;6.896;2023-05-29T08:31:20;14.60;99.90
59855;DHT22;45732;52.850;6.896;2023-05-29T08:33:45;14.60;99.90
59855;DHT22;45732;52.850;6.896;2023-05-29T08:36:11;14.70;99.90
59855;DHT22;45732;52.850;6.896;2023-05-29T08:38:37;14.70;99.90
59855;DHT22;45732;52.850;6.896;2023-05-29T08:41:03;14.70;99.90
59855;DHT22;45732;52.850;6.896;2023-05-29T08:43:34;14.80;99.90
59855;DHT22;45732;52.850;6.896;2023-05-29T08:46:02;14.80;99.90
59855;DHT22;45732;52.850;6.896;2023-05-29T08:48:29;14.90;99.90
59855;DHT22;45732;52.850;6.896;2023-05-29T08:50:56;14.90;99.90
59855;DHT22;45732;52.850;6.896;2023-05-29T08:53:23;14.90;99.90
59855;DHT22;45732;52.850;6.896;2023-05-29T08:55:50;15.00;99.90
59855;DHT22;45732;52.850;6.896;2023-05-29T08:58:21;15.00;99.90
59855;DHT22;45732;52.850;6.896;2023-05-29T09:00:48;15.00;99.90
59855;DHT22;45732;52.850;6.896;2023-05-29T09:03:14;15.00;99.90
59855;DHT22;45732;52.850;6.896;2023-05-29T09:05:41;15.10;99.90
59855;DHT22;45732;52.850;6.896;2023-05-29T09:08:08;15.20;99.90
59855;DHT22;45732;52.850;6.896;2023-05-29T09:10:35;15.30;99.90
59855;DHT22;45732;52.850;6.896;2023-05-29T09:13:01;15.30;99.90
59855;DHT22;45732;52.850;6.896;2023-05-29T09:15:27;15.40;99.90
59855;DHT22;45732;52.850;6.896;2023-05-29T09:17:54;15.40;99.90
59855;DHT22;45732;52.850;6.896;2023-05-29T09:20:22;15.40;99.90
59855;DHT22;45732;52.850;6.896;2023-05-29T09:22:53;15.50;99.90
59855;DHT22;45732;52.850;6.896;2023-05-29T09:25:24;15.50;99.90
59855;DHT22;45732;52.850;6.896;2023-05-29T09:28:06;15.60;99.90
59855;DHT22;45732;52.850;6.896;2023-05-29T09:30:38;15.50;99.90
59855;DHT22;45732;52.850;6.896;2023-05-29T09:33:05;15.50;99.90
59855;DHT22;45732;52.850;6.896;2023-05-29T09:35:37;15.60;99.90
59855;DHT22;45732;52.850;6.896;2023-05-29T09:38:03;15.60;99.90
59855;DHT22;45732;52.850;6.896;2023-05-29T09:40:35;15.70;99.90
59855;DHT22;45732;52.850;6.896;2023-05-29T09:45:41;15.80;99.90
59855;DHT22;45732;52.850;6.896;2023-05-29T09:48:22;15.90;99.90
59855;DHT22;45732;52.850;6.896;2023-05-29T09:50:48;16.00;99.90
59855;DHT22;45732;52.850;6.896;2023-05-29T09:53:22;16.00;99.90
59855;DHT22;45732;52.850;6.896;2023-05-29T09:55:50;16.10;99.90
59855;DHT22;45732;52.850;6.896;2023-05-29T09:58:23;16.10;99.90
59855;DHT22;45732;52.850;6.896;2023-05-29T10:00:50;16.10;99.90
59855;DHT22;45732;52.850;6.896;2023-05-29T10:03:17;16.10;99.90
59855;DHT22;45732;52.850;6.896;2023-05-29T10:05:47;16.10;99.90
59855;DHT22;45732;52.850;6.896;2023-05-29T10:08:15;16.10;99.90
59855;DHT22;45732;52.850;6.896;2023-05-29T10:10:47;16.10;99.90
59855;DHT22;45732;52.850;6.896;2023-05-29T10:13:15;16.20;99.90
59855;DHT22;45732;52.850;6.896;2023-05-29T10:15:44;16.20;99.90
59855;DHT22;45732;52.850;6.896;2023-05-29T10:18:20;16.20;99.90
59855;DHT22;45732;52.850;6.896;2023-05-29T10:20:51;16.30;99.90
59855;DHT22;45732;52.850;6.896;2023-05-29T10:23:21;16.30;99.90
59855;DHT22;45732;52.850;6.896;2023-05-29T10:25:54;16.40;99.90
59855;DHT22;45732;52.850;6.896;2023-05-29T10:28:22;16.40;99.90
59855;DHT22;45732;52.850;6.896;2023-05-29T10:31:01;16.50;99.90
59855;DHT22;45732;52.850;6.896;2023-05-29T10:36:09;16.50;99.90
59855;DHT22;45732;52.850;6.896;2023-05-29T10:38:41;16.60;99.90
59855;DHT22;45732;52.850;6.896;2023-05-29T10:44:00;16.70;99.90
59855;DHT22;45732;52.850;6.896;2023-05-29T10:49:16;16.70;99.90
59855;DHT22;45732;52.850;6.896;2023-05-29T10:51:43;16.70;99.90
59855;DHT22;45732;52.850;6.896;2023-05-29T10:54:10;16.70;99.90
59855;DHT22;45732;52.850;6.896;2023-05-29T10:56:36;16.70;99.90
59855;DHT22;45732;52.850;6.896;2023-05-29T10:59:02;16.70;99.90
59855;DHT22;45732;52.850;6.896;2023-05-29T11:01:29;16.70;99.90
59855;DHT22;45732;52.850;6.896;2023-05-29T11:06:42;16.70;99.90
59855;DHT22;45732;52.850;6.896;2023-05-29T11:12:25;16.60;99.90
59855;DHT22;45732;52.850;6.896;2023-05-29T11:15:11;16.70;99.90
59855;DHT22;45732;52.850;6.896;2023-05-29T11:25:15;16.90;99.90
59855;DHT22;45732;52.850;6.896;2023-05-29T11:27:43;17.00;99.90
59855;DHT22;45732;52.850;6.896;2023-05-29T11:30:09;17.00;99.90
59855;DHT22;45732;52.850;6.896;2023-05-29T11:32:36;17.10;99.90
59855;DHT22;45732;52.850;6.896;2023-05-29T11:35:08;17.10;99.90
59855;DHT22;45732;52.850;6.896;2023-05-29T11:37:42;17.10;99.90
59855;DHT22;45732;52.850;6.896;2023-05-29T11:40:09;17.10;99.90
59855;DHT22;45732;52.850;6.896;2023-05-29T11:42:46;17.20;99.90
59855;DHT22;45732;52.850;6.896;2023-05-29T11:45:19;17.30;99.90
59855;DHT22;45732;52.850;6.896;2023-05-29T11:47:59;17.30;99.90
59855;DHT22;45732;52.850;6.896;2023-05-29T11:50:27;17.30;99.90
59855;DHT22;45732;52.850;6.896;2023-05-29T11:52:53;17.20;99.90
59855;DHT22;45732;52.850;6.896;2023-05-29T11:55:22;17.30;99.90
59855;DHT22;45732;52.850;6.896;2023-05-29T11:57:49;17.20;99.90
59855;DHT22;45732;52.850;6.896;2023-05-29T12:00:17;17.20;99.90
59855;DHT22;45732;52.850;6.896;2023-05-29T12:02:44;17.40;99.90
59855;DHT22;45732;52.850;6.896;2023-05-29T12:05:13;17.40;99.90
59855;DHT22;45732;52.850;6.896;2023-05-29T12:07:51;17.40;99.90
59855;DHT22;45732;52.850;6.896;2023-05-29T12:10:18;17.50;99.90
59855;DHT22;45732;52.850;6.896;2023-05-29T12:12:55;17.50;99.90
59855;DHT22;45732;52.850;6.896;2023-05-29T12:15:21;17.60;99.90
59855;DHT22;45732;52.850;6.896;2023-05-29T12:17:48;17.50;99.90
59855;DHT22;45732;52.850;6.896;2023-05-29T12:20:14;17.50;99.90
59855;DHT22;45732;52.850;6.896;2023-05-29T12:22:42;17.40;99.90
59855;DHT22;45732;52.850;6.896;2023-05-29T12:27:42;17.40;99.90
59855;DHT22;45732;52.850;6.896;2023-05-29T12:32:45;17.40;99.90
59855;DHT22;45732;52.850;6.896;2023-05-29T12:35:17;17.30;99.90
59855;DHT22;45732;52.850;6.896;2023-05-29T12:40:14;17.40;99.90
59855;DHT22;45732;52.850;6.896;2023-05-29T12:42:41;17.40;99.90
59855;DHT22;45732;52.850;6.896;2023-05-29T12:45:07;17.40;99.90
59855;DHT22;45732;52.850;6.896;2023-05-29T12:47:34;17.40;99.90
59855;DHT22;45732;52.850;6.896;2023-05-29T12:50:04;17.50;99.90
59855;DHT22;45732;52.850;6.896;2023-05-29T12:52:29;17.40;99.90
59855;DHT22;45732;52.850;6.896;2023-05-29T12:54:55;17.20;99.90
59855;DHT22;45732;52.850;6.896;2023-05-29T12:57:21;17.20;99.90
59855;DHT22;45732;52.850;6.896;2023-05-29T12:59:47;17.20;99.90
59855;DHT22;45732;52.850;6.896;2023-05-29T13:02:13;17.20;99.90
59855;DHT22;45732;52.850;6.896;2023-05-29T13:04:39;17.20;99.90
59855;DHT22;45732;52.850;6.896;2023-05-29T13:07:05;17.20;99.90
59855;DHT22;45732;52.850;6.896;2023-05-29T13:09:31;17.10;99.90
59855;DHT22;45732;52.850;6.896;2023-05-29T13:11:56;17.10;99.90
59855;DHT22;45732;52.850;6.896;2023-05-29T13:14:22;17.10;99.90
59855;DHT22;45732;52.850;6.896;2023-05-29T13:16:48;17.00;99.90
59855;DHT22;45732;52.850;6.896;2023-05-29T13:19:13;17.00;99.90
59855;DHT22;45732;52.850;6.896;2023-05-29T13:21:39;17.00;99.90
59855;DHT22;45732;52.850;6.896;2023-05-29T13:24:06;16.90;99.90
59855;DHT22;45732;52.850;6.896;2023-05-29T13:26:32;16.90;99.90
59855;DHT22;45732;52.850;6.896;2023-05-29T13:28:57;17.00;99.90
59855;DHT22;45732;52.850;6.896;2023-05-29T13:31:23;17.00;99.90
59855;DHT22;45732;52.850;6.896;2023-05-29T13:33:49;17.00;99.90
59855;DHT22;45732;52.850;6.896;2023-05-29T13:36:14;17.00;99.90
59855;DHT22;45732;52.850;6.896;2023-05-29T13:38:40;17.10;99.90
59855;DHT22;45732;52.850;6.896;2023-05-29T13:41:06;17.10;99.90
59855;DHT22;45732;52.850;6.896;2023-05-29T13:43:31;17.10;99.90
59855;DHT22;45732;52.850;6.896;2023-05-29T13:45:57;17.10;99.90
59855;DHT22;45732;52.850;6.896;2023-05-29T13:48:23;17.10;99.90
59855;DHT22;45732;52.850;6.896;2023-05-29T13:50:48;17.00;99.90
59855;DHT22;45732;52.850;6.896;2023-05-29T13:53:14;17.00;99.90
59855;DHT22;45732;52.850;6.896;2023-05-29T13:55:41;17.10;99.90
59855;DHT22;45732;52.850;6.896;2023-05-29T13:58:07;17.10;99.90
59855;DHT22;45732;52.850;6.896;2023-05-29T14:00:33;17.20;99.90
59855;DHT22;45732;52.850;6.896;2023-05-29T14:02:58;17.10;99.90
59855;DHT22;45732;52.850;6.896;2023-05-29T14:05:24;17.10;99.90
59855;DHT22;45732;52.850;6.896;2023-05-29T14:07:50;17.10;99.90
59855;DHT22;45732;52.850;6.896;2023-05-29T14:10:15;17.10;99.90
59855;DHT22;45732;52.850;6.896;2023-05-29T14:12:41;17.10;99.90
59855;DHT22;45732;52.850;6.896;2023-05-29T14:15:07;17.10;99.90
59855;DHT22;45732;52.850;6.896;2023-05-29T14:17:33;17.10;99.90
59855;DHT22;45732;52.850;6.896;2023-05-29T14:19:59;17.00;99.90
59855;DHT22;45732;52.850;6.896;2023-05-29T14:22:29;17.00;99.90
59855;DHT22;45732;52.850;6.896;2023-05-29T14:24:55;17.00;99.90
59855;DHT22;45732;52.850;6.896;2023-05-29T14:27:21;17.00;99.90
59855;DHT22;45732;52.850;6.896;2023-05-29T14:29:47;17.10;99.90
59855;DHT22;45732;52.850;6.896;2023-05-29T14:32:12;17.00;99.90
59855;DHT22;45732;52.850;6.896;2023-05-29T14:34:38;16.90;99.90
59855;DHT22;45732;52.850;6.896;2023-05-29T14:37:04;16.90;99.90
59855;DHT22;45732;52.850;6.896;2023-05-29T14:39:30;16.90;99.90
59855;DHT22;45732;52.850;6.896;2023-05-29T14:41:55;16.90;99.90
59855;DHT22;45732;52.850;6.896;2023-05-29T14:44:21;16.90;99.90
59855;DHT22;45732;52.850;6.896;2023-05-29T14:46:47;16.90;99.90
59855;DHT22;45732;52.850;6.896;2023-05-29T14:49:12;16.80;99.90
59855;DHT22;45732;52.850;6.896;2023-05-29T14:51:38;16.80;99.90
59855;DHT22;45732;52.850;6.896;2023-05-29T14:54:04;16.80;99.90
59855;DHT22;45732;52.850;6.896;2023-05-29T14:56:30;16.80;99.90
59855;DHT22;45732;52.850;6.896;2023-05-29T14:58:55;16.80;99.90
59855;DHT22;45732;52.850;6.896;2023-05-29T15:01:21;16.80;99.90
59855;DHT22;45732;52.850;6.896;2023-05-29T15:03:47;16.80;99.90
59855;DHT22;45732;52.850;6.896;2023-05-29T15:06:13;16.80;99.90
59855;DHT22;45732;52.850;6.896;2023-05-29T15:08:39;16.90;99.90
59855;DHT22;45732;52.850;6.896;2023-05-29T15:11:06;16.90;99.90
59855;DHT22;45732;52.850;6.896;2023-05-29T15:13:32;16.90;99.90
59855;DHT22;45732;52.850;6.896;2023-05-29T15:15:57;16.90;99.90
59855;DHT22;45732;52.850;6.896;2023-05-29T15:18:28;16.90;99.90
59855;DHT22;45732;52.850;6.896;2023-05-29T15:20:54;16.90;99.90
59855;DHT22;45732;52.850;6.896;2023-05-29T15:23:20;16.90;99.90
59855;DHT22;45732;52.850;6.896;2023-05-29T15:25:50;17.00;99.90
59855;DHT22;45732;52.850;6.896;2023-05-29T15:28:16;17.10;99.90
59855;DHT22;45732;52.850;6.896;2023-05-29T15:30:42;17.10;99.90
59855;DHT22;45732;52.850;6.896;2023-05-29T15:33:08;17.20;99.90
59855;DHT22;45732;52.850;6.896;2023-05-29T15:35:37;17.30;99.90
59855;DHT22;45732;52.850;6.896;2023-05-29T15:38:06;17.50;99.90
59855;DHT22;45732;52.850;6.896;2023-05-29T15:40:32;17.70;99.90
59855;DHT22;45732;52.850;6.896;2023-05-29T15:42:58;17.90;99.90
59855;DHT22;45732;52.850;6.896;2023-05-29T15:45:23;18.10;99.90
59855;DHT22;45732;52.850;6.896;2023-05-29T15:47:51;18.40;99.90
59855;DHT22;45732;52.850;6.896;2023-05-29T15:50:17;18.80;99.90
59855;DHT22;45732;52.850;6.896;2023-05-29T15:52:42;19.10;99.90
59855;DHT22;45732;52.850;6.896;2023-05-29T15:55:08;19.40;99.90
59855;DHT22;45732;52.850;6.896;2023-05-29T15:57:34;19.60;99.90
59855;DHT22;45732;52.850;6.896;2023-05-29T16:00:00;20.00;99.90
59855;DHT22;45732;52.850;6.896;2023-05-29T16:02:26;20.30;99.20
59855;DHT22;45732;52.850;6.896;2023-05-29T16:04:51;20.60;98.60
59855;DHT22;45732;52.850;6.896;2023-05-29T16:07:17;20.70;97.80
59855;DHT22;45732;52.850;6.896;2023-05-29T16:09:43;20.60;96.90
59855;DHT22;45732;52.850;6.896;2023-05-29T16:12:09;20.60;96.80
59855;DHT22;45732;52.850;6.896;2023-05-29T16:14:36;20.60;96.80
59855;DHT22;45732;52.850;6.896;2023-05-29T16:17:02;20.50;97.20